createdAt,value
2019-06-01T00:01:46.858Z,77.87
2019-06-01T00:04:17.409Z,77.81
2019-06-01T00:06:46.950Z,78.05
2019-06-01T00:09:15.896Z,79.06
2019-06-01T00:11:45.525Z,77.64
2019-06-01T00:14:14.140Z,77.39
2019-06-01T00:16:44.018Z,76.90
2019-06-01T00:19:12.829Z,77.12
2019-06-01T00:21:43.169Z,77.80
2019-06-01T00:24:11.643Z,78.48
2019-06-01T00:26:41.573Z,78.61
2019-06-01T00:29:10.407Z,77.80
2019-06-01T00:31:38.998Z,77.30
2019-06-01T00:34:25.508Z,77.88
2019-06-01T00:36:55.798Z,77.49
2019-06-01T00:39:24.447Z,76.12
2019-06-01T00:42:09.770Z,75.85
2019-06-01T00:44:42.464Z,76.71
2019-06-01T00:47:11.295Z,77.94
2019-06-01T00:49:40.382Z,78.49
2019-06-01T00:52:08.970Z,78.74
2019-06-01T00:54:37.791Z,78.03
2019-06-01T00:57:06.045Z,77.79
2019-06-01T00:59:34.498Z,77.65
2019-06-01T01:02:02.764Z,76.69
2019-06-01T01:04:31.388Z,76.08
2019-06-01T01:07:00.057Z,76.98
2019-06-01T01:09:28.761Z,78.04
2019-06-01T01:11:57.280Z,78.73
2019-06-01T01:14:25.823Z,78.08
2019-06-01T01:16:54.232Z,77.66
2019-06-01T01:19:22.455Z,78.22
2019-06-01T01:21:52.136Z,78.80
2019-06-01T01:24:20.510Z,79.53
2019-06-01T01:26:50.511Z,79.61
2019-06-01T01:29:18.922Z,79.72
2019-06-01T01:31:47.106Z,79.75
2019-06-01T01:34:15.645Z,79.47
2019-06-01T01:36:43.841Z,79.80
2019-06-01T01:39:12.306Z,79.83
2019-06-01T01:41:40.546Z,80.28
2019-06-01T01:44:09.088Z,79.94
2019-06-01T01:46:37.569Z,79.74
2019-06-01T01:49:05.755Z,80.53
2019-06-01T01:51:34.026Z,80.27
2019-06-01T01:54:04.570Z,80.59
2019-06-01T01:56:33.088Z,80.39
2019-06-01T01:59:04.102Z,81.09
2019-06-01T02:01:31.285Z,80.96
2019-06-01T02:03:59.481Z,81.35
2019-06-01T02:06:29.125Z,81.68
2019-06-01T02:08:59.355Z,81.31
2019-06-01T02:11:28.152Z,81.73
2019-06-01T02:13:57.790Z,81.20
2019-06-01T02:16:26.481Z,81.46
2019-06-01T02:18:55.988Z,81.64
2019-06-01T02:21:25.700Z,81.78
2019-06-01T02:23:54.864Z,81.98
2019-06-01T02:26:23.297Z,81.97
2019-06-01T02:28:53.159Z,81.30
2019-06-01T02:31:39.330Z,81.67
2019-06-01T02:33:53.649Z,81.89
2019-06-01T02:36:22.786Z,81.29
2019-06-01T02:38:51.047Z,81.36
2019-06-01T02:41:19.929Z,80.56
2019-06-01T02:43:48.451Z,80.26
2019-06-01T02:46:16.601Z,80.68
2019-06-01T02:48:45.259Z,80.27
2019-06-01T02:51:13.729Z,80.41
2019-06-01T02:53:42.232Z,80.99
2019-06-01T02:56:11.119Z,81.19
2019-06-01T02:58:39.849Z,81.01
2019-06-01T03:01:35.218Z,81.27
2019-06-01T03:04:08.047Z,81.29
2019-06-01T03:06:42.019Z,80.86
2019-06-01T03:09:11.431Z,79.30
2019-06-01T03:11:41.273Z,78.77
2019-06-01T03:14:11.518Z,78.20
2019-06-01T03:16:42.076Z,78.01
2019-06-01T03:19:11.984Z,77.99
2019-06-01T03:21:46.203Z,76.98
2019-06-01T03:24:19.693Z,76.90
2019-06-01T03:26:48.224Z,76.65
2019-06-01T03:29:20.016Z,76.61
2019-06-01T03:31:48.590Z,76.13
2019-06-01T03:34:16.824Z,76.88
2019-06-01T03:36:45.719Z,78.21
2019-06-01T03:39:13.894Z,77.21
2019-06-01T03:41:42.716Z,76.90
2019-06-01T03:44:11.055Z,76.16
2019-06-01T03:46:40.113Z,75.69
2019-06-01T03:49:09.789Z,75.29
2019-06-01T03:51:39.196Z,74.83
2019-06-01T03:54:08.609Z,74.20
2019-06-01T03:56:38.097Z,74.25
2019-06-01T03:59:07.267Z,73.84
2019-06-01T04:01:37.004Z,74.15
2019-06-01T04:04:05.355Z,74.01
2019-06-01T04:06:33.746Z,73.66
2019-06-01T04:09:03.538Z,73.37
2019-06-01T04:11:32.615Z,72.82
2019-06-01T04:14:01.867Z,72.60
2019-06-01T04:16:30.058Z,72.95
2019-06-01T04:18:58.233Z,72.87
2019-06-01T04:21:26.533Z,72.54
2019-06-01T04:23:54.769Z,72.53
2019-06-01T04:26:23.322Z,72.53
2019-06-01T04:28:51.982Z,72.27
2019-06-01T04:31:21.145Z,71.72
2019-06-01T04:33:49.585Z,71.32
2019-06-01T04:36:18.519Z,71.41
2019-06-01T04:38:47.008Z,71.07
2019-06-01T04:41:15.609Z,70.72
2019-06-01T04:43:43.924Z,70.64
2019-06-01T04:46:12.554Z,70.29
2019-06-01T04:48:40.741Z,69.69
2019-06-01T04:51:08.916Z,69.52
2019-06-01T04:53:37.742Z,68.99
2019-06-01T04:56:07.022Z,68.87
2019-06-01T04:58:35.595Z,68.29
2019-06-01T05:01:04.761Z,67.73
2019-06-01T05:03:33.231Z,67.43
2019-06-01T05:06:01.700Z,67.83
2019-06-01T05:08:29.852Z,67.11
2019-06-01T05:10:58.299Z,67.16
2019-06-01T05:13:26.742Z,67.01
2019-06-01T05:15:55.146Z,67.26
2019-06-01T05:18:23.344Z,66.58
2019-06-01T05:20:51.802Z,67.08
2019-06-01T05:23:20.016Z,66.85
2019-06-01T05:25:48.560Z,66.23
2019-06-01T05:28:17.481Z,65.94
2019-06-01T05:30:45.845Z,65.17
2019-06-01T05:33:30.988Z,65.06
2019-06-01T05:35:45.126Z,64.45
2019-06-01T05:38:14.272Z,64.16
2019-06-01T05:40:43.241Z,63.07
2019-06-01T05:43:15.713Z,63.23
2019-06-01T05:45:42.377Z,62.78
2019-06-01T05:48:13.069Z,62.61
2019-06-01T05:50:41.097Z,62.60
2019-06-01T05:53:10.427Z,61.83
2019-06-01T05:55:38.891Z,61.37
2019-06-01T05:58:07.161Z,61.17
2019-06-01T06:00:42.197Z,60.19
2019-06-01T06:03:14.399Z,59.38
2019-06-01T06:05:41.073Z,59.14
2019-06-01T06:08:10.110Z,57.99
2019-06-01T06:10:38.303Z,56.78
2019-06-01T06:13:06.519Z,54.89
2019-06-01T06:15:34.862Z,54.51
2019-06-01T06:18:05.162Z,53.96
2019-06-01T06:20:33.530Z,53.24
2019-06-01T06:23:01.643Z,52.04
2019-06-01T06:25:31.773Z,50.53
2019-06-01T06:28:00.095Z,51.12
2019-06-01T06:30:28.430Z,49.56
2019-06-01T06:32:56.754Z,49.59
2019-06-01T06:35:27.811Z,48.67
2019-06-01T06:38:00.812Z,48.70
2019-06-01T06:40:30.610Z,48.62
2019-06-01T06:42:58.801Z,48.49
2019-06-01T06:45:28.866Z,48.12
2019-06-01T06:47:57.808Z,47.97
2019-06-01T06:50:26.125Z,47.01
2019-06-01T06:52:54.338Z,46.11
2019-06-01T06:55:24.038Z,46.70
2019-06-01T06:57:52.749Z,46.04
2019-06-01T07:00:22.558Z,45.62
2019-06-01T07:02:51.439Z,45.12
2019-06-01T07:05:19.757Z,44.72
2019-06-01T07:07:48.143Z,44.80
2019-06-01T07:10:18.014Z,43.93
2019-06-01T07:12:46.747Z,44.41
2019-06-01T07:15:16.200Z,44.65
2019-06-01T07:17:44.456Z,44.85
2019-06-01T07:20:12.686Z,45.20
2019-06-01T07:22:40.855Z,45.61
2019-06-01T07:25:10.482Z,47.21
2019-06-01T07:27:38.658Z,47.01
2019-06-01T07:30:07.503Z,46.25
2019-06-01T07:32:35.736Z,45.51
2019-06-01T07:35:05.208Z,45.64
2019-06-01T07:37:33.715Z,45.28
2019-06-01T07:40:03.052Z,43.88
2019-06-01T07:42:32.751Z,43.12
2019-06-01T07:45:09.134Z,42.76
2019-06-01T07:47:37.579Z,43.50
2019-06-01T07:50:06.440Z,43.21
2019-06-01T07:52:34.953Z,43.31
2019-06-01T07:55:08.702Z,43.07
2019-06-01T07:57:37.750Z,43.53
2019-06-01T08:00:06.775Z,43.62
2019-06-01T08:02:36.745Z,42.13
2019-06-01T08:05:05.669Z,42.09
2019-06-01T08:07:34.057Z,41.79
2019-06-01T08:10:02.203Z,41.70
2019-06-01T08:12:31.654Z,41.30
2019-06-01T08:15:00.442Z,42.19
2019-06-01T08:17:29.805Z,41.99
2019-06-01T08:19:58.265Z,41.55
2019-06-01T08:22:27.986Z,41.16
2019-06-01T08:24:56.324Z,41.14
2019-06-01T08:27:24.890Z,41.14
2019-06-01T08:29:53.588Z,40.71
2019-06-01T08:32:22.660Z,41.06
2019-06-01T08:35:07.149Z,40.15
2019-06-01T08:37:23.348Z,40.33
2019-06-01T08:39:52.041Z,40.15
2019-06-01T08:42:21.063Z,39.80
2019-06-01T08:44:49.433Z,38.80
2019-06-01T08:47:17.857Z,39.75
2019-06-01T08:49:46.017Z,39.09
2019-06-01T08:52:14.316Z,39.38
2019-06-01T08:54:42.496Z,39.78
2019-06-01T08:57:10.731Z,39.31
2019-06-01T08:59:39.412Z,39.76
2019-06-01T09:02:07.738Z,39.32
2019-06-01T09:04:36.281Z,39.88
2019-06-01T09:07:05.075Z,37.91
2019-06-01T09:09:33.652Z,39.35
2019-06-01T09:12:01.782Z,38.10
2019-06-01T09:14:31.252Z,38.04
2019-06-01T09:16:59.678Z,38.57
2019-06-01T09:19:27.973Z,37.44
2019-06-01T09:21:56.198Z,37.09
2019-06-01T09:24:25.760Z,37.39
2019-06-01T09:26:54.175Z,38.68
2019-06-01T09:29:22.843Z,36.96
2019-06-01T09:31:51.644Z,37.16
2019-06-01T09:34:20.033Z,37.48
2019-06-01T09:36:48.501Z,36.64
2019-06-01T09:39:17.142Z,37.37
2019-06-01T09:41:46.061Z,37.75
2019-06-01T09:44:14.194Z,37.92
2019-06-01T09:46:43.560Z,36.93
2019-06-01T09:49:11.685Z,37.59
2019-06-01T09:51:39.859Z,37.57
2019-06-01T09:54:08.755Z,37.37
2019-06-01T09:56:38.238Z,38.06
2019-06-01T09:59:07.997Z,37.56
2019-06-01T10:01:36.687Z,37.71
2019-06-01T10:04:04.900Z,37.77
2019-06-01T10:06:33.122Z,37.29
2019-06-01T10:09:01.333Z,37.94
2019-06-01T10:11:29.953Z,38.11
2019-06-01T10:13:58.224Z,37.81
2019-06-01T10:16:26.746Z,37.38
2019-06-01T10:18:55.488Z,38.07
2019-06-01T10:21:24.285Z,37.84
2019-06-01T10:23:52.557Z,38.51
2019-06-01T10:26:21.573Z,37.85
2019-06-01T10:28:50.278Z,38.46
2019-06-01T10:31:18.703Z,37.76
2019-06-01T10:33:49.230Z,37.89
2019-06-01T10:36:21.108Z,38.09
2019-06-01T10:38:47.716Z,38.39
2019-06-01T10:41:16.174Z,38.62
2019-06-01T10:43:44.739Z,38.80
2019-06-01T10:46:12.851Z,38.80
2019-06-01T10:48:42.176Z,38.77
2019-06-01T10:51:10.534Z,38.71
2019-06-01T10:53:40.532Z,37.82
2019-06-01T10:56:09.092Z,37.70
2019-06-01T10:58:54.450Z,37.77
2019-06-01T11:01:08.581Z,37.61
2019-06-01T11:03:36.790Z,36.82
2019-06-01T11:06:05.811Z,37.34
2019-06-01T11:08:35.498Z,36.96
2019-06-01T11:11:04.249Z,38.15
2019-06-01T11:13:33.061Z,38.02
2019-06-01T11:16:01.348Z,36.72
2019-06-01T11:18:29.490Z,36.08
2019-06-01T11:20:58.355Z,37.03
2019-06-01T11:23:26.479Z,36.75
2019-06-01T11:25:54.768Z,36.36
2019-06-01T11:28:22.952Z,36.86
2019-06-01T11:30:51.585Z,36.51
2019-06-01T11:33:19.833Z,36.03
2019-06-01T11:35:48.378Z,36.79
2019-06-01T11:38:16.577Z,36.83
2019-06-01T11:40:44.920Z,37.71
2019-06-01T11:43:13.103Z,37.01
2019-06-01T11:45:41.418Z,36.81
2019-06-01T11:48:09.721Z,37.24
2019-06-01T11:50:38.956Z,36.66
2019-06-01T11:53:07.417Z,36.78
2019-06-01T11:55:36.980Z,36.23
2019-06-01T11:58:05.319Z,36.55
2019-06-01T12:00:35.294Z,36.70
2019-06-01T12:03:04.267Z,36.77
2019-06-01T12:05:32.661Z,36.47
2019-06-01T12:08:01.100Z,36.23
2019-06-01T12:10:29.926Z,36.98
2019-06-01T12:12:58.071Z,37.43
2019-06-01T12:15:26.987Z,37.44
2019-06-01T12:17:55.766Z,36.56
2019-06-01T12:20:23.898Z,36.28
2019-06-01T12:22:52.804Z,35.91
2019-06-01T12:25:21.733Z,35.98
2019-06-01T12:27:50.354Z,35.70
2019-06-01T12:30:20.018Z,36.21
2019-06-01T12:32:48.956Z,35.45
2019-06-01T12:35:17.900Z,34.58
2019-06-01T12:38:04.820Z,35.43
2019-06-01T12:40:16.552Z,35.37
2019-06-01T12:42:45.997Z,35.62
2019-06-01T12:45:22.239Z,35.70
2019-06-01T12:47:53.422Z,35.86
2019-06-01T12:50:18.605Z,35.32
2019-06-01T12:52:48.612Z,34.34
2019-06-01T12:55:17.453Z,34.77
2019-06-01T12:57:46.902Z,34.92
2019-06-01T13:00:15.954Z,34.23
2019-06-01T13:02:46.189Z,35.83
2019-06-01T13:05:15.425Z,34.56
2019-06-01T13:07:57.423Z,34.12
2019-06-01T13:10:14.667Z,33.95
2019-06-01T13:12:43.139Z,33.85
2019-06-01T13:15:12.417Z,33.68
2019-06-01T13:17:41.033Z,34.19
2019-06-01T13:20:10.112Z,34.83
2019-06-01T13:22:38.443Z,34.69
2019-06-01T13:25:07.484Z,35.05
2019-06-01T13:27:35.752Z,34.84
2019-06-01T13:30:05.455Z,34.42
2019-06-01T13:32:33.862Z,33.97
2019-06-01T13:35:02.203Z,34.53
2019-06-01T13:37:30.398Z,35.33
2019-06-01T13:39:58.776Z,35.14
2019-06-01T13:42:26.977Z,35.60
2019-06-01T13:44:56.950Z,34.67
2019-06-01T13:47:25.081Z,34.92
2019-06-01T13:49:54.255Z,35.20
2019-06-01T13:52:22.466Z,35.30
2019-06-01T13:54:50.914Z,35.66
2019-06-01T13:57:19.162Z,35.15
2019-06-01T13:59:48.765Z,35.14
2019-06-01T14:02:17.325Z,34.75
2019-06-01T14:04:47.474Z,34.78
2019-06-01T14:07:15.910Z,33.97
2019-06-01T14:09:45.236Z,34.52
2019-06-01T14:12:13.883Z,34.70
2019-06-01T14:14:42.199Z,35.00
2019-06-01T14:17:10.686Z,34.60
2019-06-01T14:19:39.195Z,34.00
2019-06-01T14:22:07.393Z,34.10
2019-06-01T14:24:36.097Z,33.85
2019-06-01T14:27:04.731Z,33.44
2019-06-01T14:29:33.006Z,33.44
2019-06-01T14:32:01.464Z,33.30
2019-06-01T14:34:29.642Z,33.44
2019-06-01T14:36:57.794Z,33.76
2019-06-01T14:39:26.762Z,33.65
2019-06-01T14:41:55.556Z,33.32
2019-06-01T14:44:24.046Z,33.84
2019-06-01T14:47:01.369Z,34.07
2019-06-01T14:49:22.616Z,33.37
2019-06-01T14:51:51.585Z,33.34
2019-06-01T14:54:20.128Z,33.80
2019-06-01T14:56:49.719Z,33.37
2019-06-01T14:59:18.581Z,33.93
2019-06-01T15:01:48.180Z,34.63
2019-06-01T15:04:16.494Z,34.60
2019-06-01T15:06:45.540Z,34.64
2019-06-01T15:09:18.993Z,34.14
2019-06-01T15:11:44.059Z,33.88
2019-06-01T15:14:12.258Z,33.35
2019-06-01T15:16:41.213Z,38.41
2019-06-01T15:19:09.489Z,39.39
2019-06-01T15:21:38.105Z,39.29
2019-06-01T15:24:07.387Z,39.61
2019-06-01T15:26:36.129Z,39.91
2019-06-01T15:29:04.468Z,40.53
2019-06-01T15:31:32.652Z,40.70
2019-06-01T15:34:01.832Z,40.86
2019-06-01T15:36:31.065Z,41.14
2019-06-01T15:38:59.907Z,41.60
2019-06-01T15:41:28.365Z,41.15
2019-06-01T15:43:57.078Z,41.23
2019-06-01T15:46:25.287Z,41.32
2019-06-01T15:48:54.129Z,42.44
2019-06-01T15:51:22.675Z,42.20
2019-06-01T15:53:51.299Z,42.63
2019-06-01T15:56:23.528Z,42.19
2019-06-01T15:58:54.576Z,42.23
2019-06-01T16:01:20.599Z,42.25
2019-06-01T16:03:49.043Z,42.62
2019-06-01T16:06:18.692Z,41.96
2019-06-01T16:08:47.024Z,42.54
2019-06-01T16:11:15.209Z,42.11
2019-06-01T16:13:43.663Z,42.01
2019-06-01T16:16:12.440Z,42.19
2019-06-01T16:18:40.951Z,42.10
2019-06-01T16:21:09.448Z,42.81
2019-06-01T16:23:49.323Z,43.36
2019-06-01T16:26:15.760Z,44.14
2019-06-01T16:28:39.324Z,44.07
2019-06-01T16:31:07.501Z,44.16
2019-06-01T16:33:35.966Z,45.07
2019-06-01T16:36:05.485Z,44.88
2019-06-01T16:38:43.281Z,44.99
2019-06-01T16:41:11.465Z,45.25
2019-06-01T16:43:39.766Z,44.94
2019-06-01T16:46:07.976Z,45.02
2019-06-01T16:48:36.443Z,45.17
2019-06-01T16:51:05.892Z,45.08
2019-06-01T16:53:35.093Z,45.28
2019-06-01T16:56:04.044Z,45.48
2019-06-01T16:58:33.295Z,45.71
2019-06-01T17:01:02.654Z,45.73
2019-06-01T17:03:31.175Z,45.67
2019-06-01T17:06:00.568Z,45.99
2019-06-01T17:08:29.149Z,46.07
2019-06-01T17:10:58.558Z,45.82
2019-06-01T17:13:27.483Z,46.27
2019-06-01T17:15:56.885Z,46.86
2019-06-01T17:18:25.519Z,47.07
2019-06-01T17:20:54.769Z,47.70
2019-06-01T17:23:27.522Z,47.69
2019-06-01T17:25:53.433Z,47.97
2019-06-01T17:28:21.564Z,47.97
2019-06-01T17:30:50.266Z,48.10
2019-06-01T17:33:18.654Z,48.47
2019-06-01T17:35:46.819Z,48.70
2019-06-01T17:38:15.477Z,48.29
2019-06-01T17:40:43.779Z,48.41
2019-06-01T17:43:13.145Z,48.54
2019-06-01T17:45:41.676Z,48.91
2019-06-01T17:48:21.589Z,49.35
2019-06-01T17:50:40.300Z,49.10
2019-06-01T17:53:08.902Z,49.57
2019-06-01T17:55:39.776Z,50.65
2019-06-01T17:58:10.021Z,50.93
2019-06-01T18:00:39.714Z,51.07
2019-06-01T18:03:08.214Z,50.63
2019-06-01T18:05:36.893Z,50.85
2019-06-01T18:08:06.351Z,50.91
2019-06-01T18:10:50.182Z,51.22
2019-06-01T18:13:06.477Z,51.27
2019-06-01T18:15:34.854Z,51.24
2019-06-01T18:18:04.423Z,51.86
2019-06-01T18:20:34.599Z,51.68
2019-06-01T18:23:04.406Z,51.79
2019-06-01T18:25:33.150Z,52.22
2019-06-01T18:28:02.550Z,52.57
2019-06-01T18:30:30.829Z,52.66
2019-06-01T18:32:59.352Z,53.09
2019-06-01T18:35:27.595Z,52.88
2019-06-01T18:37:56.176Z,52.73
2019-06-01T18:40:24.926Z,52.78
2019-06-01T18:43:00.547Z,52.92
2019-06-01T18:45:30.669Z,53.05
2019-06-01T18:47:59.299Z,53.27
2019-06-01T18:50:27.841Z,53.24
2019-06-01T18:52:56.554Z,52.92
2019-06-01T18:55:27.446Z,53.08
2019-06-01T18:58:00.101Z,53.30
2019-06-01T19:00:28.384Z,53.18
2019-06-01T19:02:57.491Z,53.03
2019-06-01T19:05:27.442Z,53.45
2019-06-01T19:07:55.736Z,53.66
2019-06-01T19:10:23.914Z,53.57
2019-06-01T19:12:52.257Z,53.80
2019-06-01T19:15:28.456Z,53.76
2019-06-01T19:17:50.929Z,53.66
2019-06-01T19:20:19.534Z,53.73
2019-06-01T19:22:47.739Z,54.11
2019-06-01T19:25:17.062Z,54.45
2019-06-01T19:27:46.338Z,54.47
2019-06-01T19:30:37.939Z,54.33
2019-06-01T19:33:10.825Z,54.60
2019-06-01T19:35:40.009Z,54.65
2019-06-01T19:38:09.156Z,54.51
2019-06-01T19:40:40.410Z,54.97
2019-06-01T19:43:09.704Z,54.71
2019-06-01T19:45:37.848Z,54.94
2019-06-01T19:48:08.404Z,54.37
2019-06-01T19:50:37.383Z,54.37
2019-06-01T19:53:05.958Z,54.01
2019-06-01T19:55:34.812Z,53.86
2019-06-01T19:58:03.291Z,53.74
2019-06-01T20:00:31.757Z,53.93
2019-06-01T20:02:59.932Z,54.01
2019-06-01T20:05:29.114Z,53.62
2019-06-01T20:07:57.439Z,53.50
2019-06-01T20:10:26.383Z,54.05
2019-06-01T20:12:55.269Z,53.82
2019-06-01T20:15:23.760Z,54.11
2019-06-01T20:17:52.159Z,54.44
2019-06-01T20:20:21.046Z,54.21
2019-06-01T20:22:49.276Z,54.74
2019-06-01T20:25:17.753Z,54.69
2019-06-01T20:27:46.222Z,54.98
2019-06-01T20:34:03.137Z,54.12
2019-06-01T20:36:31.289Z,54.52
2019-06-01T20:39:04.020Z,54.56
2019-06-01T20:41:36.611Z,54.22
2019-06-01T20:44:06.676Z,54.71
2019-06-01T20:46:35.140Z,54.79
2019-06-01T20:49:03.842Z,54.01
2019-06-01T20:51:32.316Z,53.71
2019-06-01T20:54:01.860Z,54.14
2019-06-01T20:56:30.795Z,55.20
2019-06-01T20:58:59.298Z,55.51
2019-06-01T21:01:27.541Z,55.57
2019-06-01T21:03:55.746Z,55.55
2019-06-01T21:06:24.655Z,55.24
2019-06-01T21:08:52.922Z,55.21
2019-06-01T21:11:22.351Z,54.75
2019-06-01T21:13:50.703Z,54.91
2019-06-01T21:16:20.209Z,55.39
2019-06-01T21:18:48.888Z,55.50
2019-06-01T21:21:18.091Z,55.91
2019-06-01T21:23:47.195Z,55.93
2019-06-01T21:26:16.822Z,55.89
2019-06-01T21:28:45.305Z,56.24
2019-06-01T21:31:13.462Z,55.84
2019-06-01T21:33:42.129Z,56.18
2019-06-01T21:36:10.736Z,55.91
2019-06-01T21:38:39.308Z,56.21
2019-06-01T21:41:07.572Z,56.47
2019-06-01T21:43:36.163Z,56.82
2019-06-01T21:46:04.386Z,56.74
2019-06-01T21:48:32.807Z,56.21
2019-06-01T21:51:01.563Z,56.76
2019-06-01T21:53:30.520Z,57.42
2019-06-01T21:55:59.294Z,57.79
2019-06-01T21:58:28.099Z,57.86
2019-06-01T22:00:56.860Z,57.99
2019-06-01T22:03:25.632Z,57.82
2019-06-01T22:05:54.414Z,58.14
2019-06-01T22:08:23.283Z,57.82
2019-06-01T22:10:51.638Z,57.85
2019-06-01T22:13:23.777Z,57.32
2019-06-01T22:15:50.108Z,57.46
2019-06-01T22:18:19.593Z,57.83
2019-06-01T22:20:48.246Z,58.29
2019-06-01T22:23:17.926Z,58.31
2019-06-01T22:25:46.600Z,58.41
2019-06-01T22:28:14.797Z,58.07
2019-06-01T22:30:42.995Z,58.28
2019-06-01T22:33:11.534Z,58.23
2019-06-01T22:35:40.393Z,58.67
2019-06-01T22:38:09.042Z,58.85
2019-06-01T22:40:37.193Z,58.58
2019-06-01T22:43:05.394Z,58.50
2019-06-01T22:45:34.132Z,59.06
2019-06-01T22:48:02.426Z,59.16
2019-06-01T22:50:30.610Z,59.35
2019-06-01T22:52:59.118Z,59.52
2019-06-01T22:55:28.454Z,59.63
2019-06-01T22:57:56.739Z,60.02
2019-06-01T23:00:25.843Z,59.89
2019-06-01T23:02:54.377Z,60.23
2019-06-01T23:05:23.079Z,60.58
2019-06-01T23:07:51.742Z,60.80
2019-06-01T23:10:24.595Z,60.92
2019-06-01T23:12:50.544Z,61.40
2019-06-01T23:15:19.458Z,61.12
2019-06-01T23:17:47.658Z,61.63
2019-06-01T23:20:16.021Z,61.78
2019-06-01T23:22:44.277Z,61.85
2019-06-01T23:25:12.729Z,61.99
2019-06-01T23:27:41.336Z,62.31
2019-06-01T23:30:09.591Z,62.81
2019-06-01T23:32:37.779Z,62.80
2019-06-01T23:35:06.358Z,63.06
2019-06-01T23:37:35.160Z,63.03
2019-06-01T23:40:03.848Z,62.76
2019-06-01T23:42:32.982Z,63.23
2019-06-01T23:45:01.317Z,63.39
2019-06-01T23:47:29.599Z,63.93
2019-06-01T23:49:57.793Z,63.77
2019-06-01T23:52:27.450Z,64.06
2019-06-01T23:54:56.655Z,64.64
2019-06-01T23:57:25.666Z,64.80
2019-06-01T23:59:54.632Z,65.44
